Time;durP1;ratioP1;P1;durP2;ratioP2;P2;SDS_P1;SDS_P2;PMS_P1;PMS_P2;Temp;Humidity;BMP_temperature;BMP_pressure;BME280_temperature;BME280_humidity;BME280_pressure;Samples;Min_cycle;Max_cycle;Signal;HPM_P1;HPM_P2
2023/05/15 00:01:23;;;;;;;1.10;1.00;;;;;;;;;;5049606;27;88832;-56
2023/05/15 00:03:51;;;;;;;0.70;0.70;;;;;;;;;;5060031;27;86862;-55
2023/05/15 00:06:21;;;;;;;1.17;1.07;;;;;;;;;;5062833;27;86206;-56
2023/05/15 00:08:49;;;;;;;0.70;0.70;;;;;;;;;;5062196;27;88884;-55
2023/05/15 00:11:18;;;;;;;1.40;0.70;;;;;;;;;;5060512;27;89090;-56
2023/05/15 00:13:46;;;;;;;1.20;1.10;;;;;;;;;;5061397;27;87959;-56
2023/05/15 00:16:14;;;;;;;1.57;1.00;;;;;;;;;;5062687;27;86980;-55
2023/05/15 00:18:43;;;;;;;1.53;1.43;;;;;;;;;;5064433;27;88068;-56
2023/05/15 00:21:11;;;;;;;1.27;1.13;;;;;;;;;;5057219;27;88898;-56
2023/05/15 00:23:41;;;;;;;3.37;1.20;;;;;;;;;;5062516;27;87005;-56
2023/05/15 00:26:09;;;;;;;1.40;1.10;;;;;;;;;;5062310;27;87100;-56
2023/05/15 00:28:38;;;;;;;0.93;0.90;;;;;;;;;;5062099;27;87798;-57
2023/05/15 00:31:07;;;;;;;1.57;1.10;;;;;;;;;;5061711;27;88843;-56
2023/05/15 00:33:35;;;;;;;0.57;0.57;;;;;;;;;;5061711;27;87213;-56
2023/05/15 00:36:04;;;;;;;0.93;0.83;;;;;;;;;;5061394;27;87055;-57
2023/05/15 00:38:32;;;;;;;0.83;0.83;;;;;;;;;;5059507;27;90174;-56
2023/05/15 00:41:02;;;;;;;0.80;0.80;;;;;;;;;;5060092;27;89968;-57
2023/05/15 00:43:30;;;;;;;1.53;1.27;;;;;;;;;;5060790;27;87128;-57
2023/05/15 00:45:59;;;;;;;5.53;1.77;;;;;;;;;;5060634;27;87136;-56
2023/05/15 00:48:27;;;;;;;1.43;1.10;;;;;;;;;;5059688;27;89194;-56
2023/05/15 00:50:55;;;;;;;0.90;0.90;;;;;;;;;;5060523;27;88939;-56
2023/05/15 00:53:24;;;;;;;1.10;1.00;;;;;;;;;;5060146;27;87104;-56
2023/05/15 00:55:52;;;;;;;1.30;1.20;;;;;;;;;;5060832;27;87127;-55
2023/05/15 00:58:22;;;;;;;1.83;1.23;;;;;;;;;;5060725;27;89350;-57
2023/05/15 01:00:50;;;;;;;0.90;0.90;;;;;;;;;;5059731;27;87986;-57
2023/05/15 01:03:19;;;;;;;0.90;0.80;;;;;;;;;;5060618;27;87978;-57
2023/05/15 01:05:47;;;;;;;1.27;0.90;;;;;;;;;;5060531;27;88589;-56
2023/05/15 01:08:17;;;;;;;0.80;0.80;;;;;;;;;;5060758;27;88293;-56
2023/05/15 01:10:45;;;;;;;1.20;1.10;;;;;;;;;;5060218;27;87850;-56
2023/05/15 01:13:14;;;;;;;0.80;0.80;;;;;;;;;;5060705;27;87162;-56
2023/05/15 01:15:43;;;;;;;0.70;0.70;;;;;;;;;;5060358;27;87081;-57
2023/05/15 01:18:12;;;;;;;1.63;1.03;;;;;;;;;;5059962;27;88110;-55
2023/05/15 01:20:46;;;;;;;0.80;0.80;;;;;;;;;;5059301;27;87649;-56
2023/05/15 01:23:16;;;;;;;1.10;0.83;;;;;;;;;;5058026;27;87037;-56
2023/05/15 01:25:47;;;;;;;4.00;1.20;;;;;;;;;;5059851;27;86820;-56
2023/05/15 01:28:17;;;;;;;0.73;0.73;;;;;;;;;;5059201;27;90079;-56
2023/05/15 01:30:45;;;;;;;1.07;0.90;;;;;;;;;;5057597;27;89757;-56
2023/05/15 01:33:16;;;;;;;0.70;0.70;;;;;;;;;;5060080;27;87160;-57
2023/05/15 01:35:46;;;;;;;0.93;0.90;;;;;;;;;;5058095;27;87465;-56
2023/05/15 01:38:16;;;;;;;1.00;0.80;;;;;;;;;;5060633;27;89132;-57
2023/05/15 01:40:45;;;;;;;0.80;0.80;;;;;;;;;;5059625;27;88881;-55
2023/05/15 01:43:16;;;;;;;1.50;1.03;;;;;;;;;;5060242;27;88302;-56
2023/05/15 01:45:45;;;;;;;1.93;0.80;;;;;;;;;;5060452;27;86375;-56
2023/05/15 01:48:14;;;;;;;0.60;0.60;;;;;;;;;;5059503;27;87969;-56
2023/05/15 01:50:42;;;;;;;1.03;0.93;;;;;;;;;;5059833;27;87853;-56
2023/05/15 01:53:10;;;;;;;1.53;0.80;;;;;;;;;;5059320;27;89795;-56
2023/05/15 01:55:39;;;;;;;2.43;0.93;;;;;;;;;;5059746;27;88262;-56
2023/05/15 01:58:07;;;;;;;1.43;0.80;;;;;;;;;;5059321;27;89198;-56
2023/05/15 02:00:36;;;;;;;0.80;0.80;;;;;;;;;;5062972;27;89079;-56
2023/05/15 02:03:05;;;;;;;1.10;1.00;;;;;;;;;;5063383;27;86976;-56
2023/05/15 02:05:34;;;;;;;1.10;1.00;;;;;;;;;;5063809;27;86996;-57
2023/05/15 02:08:02;;;;;;;1.27;1.00;;;;;;;;;;5063799;27;89084;-56
2023/05/15 02:10:31;;;;;;;1.53;1.03;;;;;;;;;;5063504;27;89467;-57
2023/05/15 02:13:00;;;;;;;1.20;1.00;;;;;;;;;;5063431;27;87009;-57
2023/05/15 02:15:29;;;;;;;0.83;0.77;;;;;;;;;;5063446;27;87107;-56
2023/05/15 02:17:57;;;;;;;1.00;0.90;;;;;;;;;;5062562;27;88971;-56
2023/05/15 02:20:27;;;;;;;1.70;0.87;;;;;;;;;;5063491;27;89764;-55
2023/05/15 02:22:55;;;;;;;1.00;1.00;;;;;;;;;;5063916;27;88678;-56
2023/05/15 02:25:25;;;;;;;1.27;1.17;;;;;;;;;;5063427;27;87107;-56
2023/05/15 02:27:55;;;;;;;0.80;0.77;;;;;;;;;;5063569;27;88211;-56
2023/05/15 02:30:28;;;;;;;1.27;0.70;;;;;;;;;;5062800;27;87591;-56
2023/05/15 02:32:59;;;;;;;0.90;0.90;;;;;;;;;;5063709;27;88370;-56
2023/05/15 02:35:31;;;;;;;0.70;0.70;;;;;;;;;;5064176;27;86533;-56
2023/05/15 02:38:01;;;;;;;0.63;0.63;;;;;;;;;;5063329;27;88234;-56
2023/05/15 02:40:29;;;;;;;1.97;0.97;;;;;;;;;;5063146;27;88832;-56
2023/05/15 02:42:58;;;;;;;3.77;0.90;;;;;;;;;;5061683;27;87999;-57
2023/05/15 02:45:27;;;;;;;0.97;0.90;;;;;;;;;;5062061;27;87400;-56
2023/05/15 02:47:56;;;;;;;0.93;0.93;;;;;;;;;;5062421;27;89000;-56
2023/05/15 02:50:24;;;;;;;1.20;1.10;;;;;;;;;;5061887;27;87806;-56
2023/05/15 02:52:54;;;;;;;2.40;1.30;;;;;;;;;;5063227;27;87062;-56
2023/05/15 02:55:22;;;;;;;1.23;0.90;;;;;;;;;;5062136;27;88629;-56
2023/05/15 02:57:51;;;;;;;2.93;0.87;;;;;;;;;;5062313;27;88143;-56
2023/05/15 03:00:20;;;;;;;0.83;0.80;;;;;;;;;;5061887;27;88626;-56
2023/05/15 03:02:48;;;;;;;1.03;0.47;;;;;;;;;;5061947;27;87161;-56
2023/05/15 03:05:16;;;;;;;1.10;0.90;;;;;;;;;;5061649;27;87182;-56
2023/05/15 03:07:45;;;;;;;0.90;0.53;;;;;;;;;;5061873;27;89035;-57
2023/05/15 03:10:14;;;;;;;0.70;0.70;;;;;;;;;;5062286;27;89817;-57
2023/05/15 03:12:43;;;;;;;1.37;0.70;;;;;;;;;;5062704;27;87010;-57
2023/05/15 03:15:11;;;;;;;0.93;0.73;;;;;;;;;;5062092;27;87109;-56
2023/05/15 03:17:39;;;;;;;1.10;1.00;;;;;;;;;;5061860;27;88054;-56
2023/05/15 03:20:10;;;;;;;0.97;0.73;;;;;;;;;;5061429;27;87780;-56
2023/05/15 03:22:38;;;;;;;3.50;0.90;;;;;;;;;;5060239;27;88544;-56
2023/05/15 03:25:07;;;;;;;1.00;0.90;;;;;;;;;;5062385;27;87673;-56
2023/05/15 03:27:37;;;;;;;0.70;0.70;;;;;;;;;;5061327;27;89176;-57
2023/05/15 03:30:07;;;;;;;0.93;0.90;;;;;;;;;;5061648;27;89114;-57
2023/05/15 03:32:35;;;;;;;0.60;0.60;;;;;;;;;;5061334;27;88057;-56
2023/05/15 03:35:04;;;;;;;1.70;0.93;;;;;;;;;;5058821;27;87088;-56
2023/05/15 03:37:33;;;;;;;0.60;0.60;;;;;;;;;;5061915;27;89068;-57
2023/05/15 03:40:01;;;;;;;0.73;0.70;;;;;;;;;;5062289;27;86979;-56
2023/05/15 03:42:29;;;;;;;0.90;0.90;;;;;;;;;;5062239;27;86873;-56
2023/05/15 03:44:59;;;;;;;0.93;0.87;;;;;;;;;;5061855;27;87078;-56
2023/05/15 03:47:27;;;;;;;0.83;0.70;;;;;;;;;;5061244;27;87789;-56
2023/05/15 03:49:56;;;;;;;1.10;1.00;;;;;;;;;;5060346;27;89008;-56
2023/05/15 03:52:24;;;;;;;0.67;0.67;;;;;;;;;;5062476;27;87159;-56
2023/05/15 03:54:52;;;;;;;0.80;0.80;;;;;;;;;;5062075;27;87027;-57
2023/05/15 03:57:20;;;;;;;1.00;0.90;;;;;;;;;;5060473;27;89126;-57
2023/05/15 03:59:49;;;;;;;1.00;0.70;;;;;;;;;;5060136;27;88893;-56
2023/05/15 04:02:19;;;;;;;1.10;1.00;;;;;;;;;;5061199;27;87232;-56
2023/05/15 04:04:47;;;;;;;0.60;0.60;;;;;;;;;;5060881;27;87101;-56
2023/05/15 04:07:16;;;;;;;0.90;0.90;;;;;;;;;;5061411;27;89308;-56
2023/05/15 04:09:44;;;;;;;0.93;0.90;;;;;;;;;;5061856;27;88910;-56
2023/05/15 04:12:12;;;;;;;0.70;0.70;;;;;;;;;;5061628;27;87750;-56
2023/05/15 04:14:40;;;;;;;0.83;0.80;;;;;;;;;;5062049;27;86281;-56
2023/05/15 04:17:09;;;;;;;1.20;1.00;;;;;;;;;;5056522;27;89129;-56
2023/05/15 04:19:39;;;;;;;1.93;0.90;;;;;;;;;;5060342;27;89025;-56
2023/05/15 04:22:10;;;;;;;0.80;0.80;;;;;;;;;;5057125;27;87912;-54
2023/05/15 04:24:38;;;;;;;1.80;0.83;;;;;;;;;;5059159;27;87052;-56
2023/05/15 04:27:06;;;;;;;1.80;1.00;;;;;;;;;;5059038;27;90800;-56
2023/05/15 04:29:35;;;;;;;0.60;0.60;;;;;;;;;;5059206;27;88842;-56
2023/05/15 04:32:03;;;;;;;0.87;0.80;;;;;;;;;;5059482;27;88099;-56
2023/05/15 04:34:32;;;;;;;1.27;1.17;;;;;;;;;;5059270;27;88467;-56
2023/05/15 04:37:02;;;;;;;0.70;0.70;;;;;;;;;;5057999;27;89351;-57
2023/05/15 04:39:30;;;;;;;0.80;0.80;;;;;;;;;;5059215;27;88626;-57
2023/05/15 04:41:58;;;;;;;1.30;1.10;;;;;;;;;;5060289;27;87076;-54
2023/05/15 04:44:27;;;;;;;1.10;1.00;;;;;;;;;;5060123;27;87078;-59
2023/05/15 04:46:55;;;;;;;2.40;1.50;;;;;;;;;;5058032;27;89763;-59
2023/05/15 04:49:23;;;;;;;2.87;1.43;;;;;;;;;;5058790;27;89804;-60
2023/05/15 04:51:52;;;;;;;2.27;1.57;;;;;;;;;;5059420;27;86863;-60
2023/05/15 04:54:21;;;;;;;1.37;1.27;;;;;;;;;;5059657;27;87004;-61
2023/05/15 04:56:50;;;;;;;1.40;1.30;;;;;;;;;;5057276;27;89290;-58
2023/05/15 04:59:18;;;;;;;2.23;1.90;;;;;;;;;;5056458;27;88485;-58
2023/05/15 05:01:46;;;;;;;2.17;1.43;;;;;;;;;;5059686;27;87317;-58
2023/05/15 05:04:18;;;;;;;2.20;1.30;;;;;;;;;;5059455;27;86335;-59
2023/05/15 05:06:46;;;;;;;4.17;1.43;;;;;;;;;;5058258;27;89216;-59
2023/05/15 05:09:15;;;;;;;2.00;1.77;;;;;;;;;;5057274;27;88924;-59
2023/05/15 05:11:44;;;;;;;1.93;1.63;;;;;;;;;;5058942;27;88043;-59
2023/05/15 05:14:13;;;;;;;3.33;2.10;;;;;;;;;;5058284;27;87210;-58
2023/05/15 05:16:41;;;;;;;1.97;1.43;;;;;;;;;;5058542;27;89149;-56
2023/05/15 05:19:09;;;;;;;1.60;1.47;;;;;;;;;;5057714;27;88606;-59
2023/05/15 05:21:38;;;;;;;1.47;1.37;;;;;;;;;;5058808;27;87135;-58
2023/05/15 05:24:06;;;;;;;1.70;1.37;;;;;;;;;;5058749;27;86930;-57
2023/05/15 05:26:34;;;;;;;4.20;1.90;;;;;;;;;;5059020;27;89077;-57
2023/05/15 05:29:04;;;;;;;3.20;1.60;;;;;;;;;;5059417;27;88798;-56
2023/05/15 05:31:32;;;;;;;1.70;1.60;;;;;;;;;;5057631;27;87031;-56
2023/05/15 05:34:01;;;;;;;1.80;1.50;;;;;;;;;;5060295;27;87138;-56
2023/05/15 05:36:29;;;;;;;1.57;1.47;;;;;;;;;;5061700;27;88290;-57
2023/05/15 05:38:58;;;;;;;1.63;1.50;;;;;;;;;;5062333;27;88683;-56
2023/05/15 05:41:26;;;;;;;3.00;2.23;;;;;;;;;;5062034;27;87124;-57
2023/05/15 05:43:54;;;;;;;2.83;1.87;;;;;;;;;;5060173;27;87162;-56
2023/05/15 05:46:26;;;;;;;2.23;1.20;;;;;;;;;;5058832;27;89140;-57
2023/05/15 05:48:54;;;;;;;1.97;1.50;;;;;;;;;;5061889;27;87741;-56
2023/05/15 05:51:22;;;;;;;1.63;1.30;;;;;;;;;;5061353;27;87038;-56
2023/05/15 05:53:50;;;;;;;1.53;1.33;;;;;;;;;;5062824;27;86344;-58
2023/05/15 05:56:20;;;;;;;6.13;1.83;;;;;;;;;;5062131;27;89109;-57
2023/05/15 05:58:48;;;;;;;1.77;1.33;;;;;;;;;;5059267;27;87390;-57
2023/05/15 06:01:17;;;;;;;2.30;1.57;;;;;;;;;;5061649;27;88454;-57
2023/05/15 06:03:46;;;;;;;6.57;1.87;;;;;;;;;;5061488;27;87111;-57
2023/05/15 06:06:15;;;;;;;5.13;2.00;;;;;;;;;;5062000;27;88973;-58
2023/05/15 06:08:43;;;;;;;4.37;1.97;;;;;;;;;;5061869;27;88953;-57
2023/05/15 06:11:12;;;;;;;3.90;1.50;;;;;;;;;;5061637;27;88653;-58
2023/05/15 06:13:40;;;;;;;4.23;2.03;;;;;;;;;;5062423;27;87084;-57
2023/05/15 06:16:08;;;;;;;2.73;1.70;;;;;;;;;;5059686;27;89364;-58
2023/05/15 06:18:37;;;;;;;7.67;2.10;;;;;;;;;;5058672;27;87780;-58
2023/05/15 06:21:06;;;;;;;2.33;2.00;;;;;;;;;;5061082;27;86917;-57
2023/05/15 06:23:36;;;;;;;2.17;1.67;;;;;;;;;;5061263;27;88445;-58
2023/05/15 06:26:04;;;;;;;5.47;1.80;;;;;;;;;;5061500;27;90032;-58
2023/05/15 06:28:32;;;;;;;3.30;1.97;;;;;;;;;;5061224;27;89741;-58
2023/05/15 06:31:01;;;;;;;3.87;1.50;;;;;;;;;;5060657;27;87174;-58
2023/05/15 06:33:30;;;;;;;1.97;1.73;;;;;;;;;;5060765;27;88594;-58
2023/05/15 06:35:58;;;;;;;2.13;1.73;;;;;;;;;;5061856;27;87178;-58
2023/05/15 06:38:27;;;;;;;3.77;2.33;;;;;;;;;;5060638;27;89030;-58
2023/05/15 06:40:56;;;;;;;2.33;1.83;;;;;;;;;;5061976;27;87386;-58
2023/05/15 06:43:24;;;;;;;2.50;1.90;;;;;;;;;;5061496;27;87601;-58
2023/05/15 06:45:52;;;;;;;2.03;1.80;;;;;;;;;;5060985;27;87103;-58
2023/05/15 06:48:21;;;;;;;4.60;1.60;;;;;;;;;;5060196;27;87376;-58
2023/05/15 06:50:49;;;;;;;7.70;2.23;;;;;;;;;;5060144;27;87965;-58
2023/05/15 06:53:19;;;;;;;3.10;1.77;;;;;;;;;;5061827;27;87037;-58
2023/05/15 06:55:49;;;;;;;3.87;1.30;;;;;;;;;;5059226;27;87600;-58
2023/05/15 06:58:17;;;;;;;4.13;2.57;;;;;;;;;;5062326;27;88737;-58
2023/05/15 07:00:46;;;;;;;1.67;1.23;;;;;;;;;;5062456;27;86984;-58
2023/05/15 07:03:15;;;;;;;3.43;2.27;;;;;;;;;;5060206;27;88517;-58
2023/05/15 07:05:43;;;;;;;3.07;1.50;;;;;;;;;;5062391;27;89243;-58
2023/05/15 07:08:12;;;;;;;2.00;1.33;;;;;;;;;;5062505;27;88925;-58
2023/05/15 07:10:40;;;;;;;1.77;1.67;;;;;;;;;;5060007;27;87151;-58
2023/05/15 07:13:10;;;;;;;2.63;1.47;;;;;;;;;;5061112;27;86994;-58
2023/05/15 07:15:38;;;;;;;2.27;1.80;;;;;;;;;;5061487;27;90195;-58
2023/05/15 07:18:06;;;;;;;3.63;1.73;;;;;;;;;;5061098;27;89823;-57
2023/05/15 07:20:35;;;;;;;3.10;1.67;;;;;;;;;;5062418;27;87188;-58
2023/05/15 07:23:04;;;;;;;2.87;1.80;;;;;;;;;;5061419;27;87059;-58
2023/05/15 07:25:32;;;;;;;2.73;1.90;;;;;;;;;;5061666;27;88000;-58
2023/05/15 07:28:00;;;;;;;3.30;2.10;;;;;;;;;;5061554;27;88872;-58
2023/05/15 07:30:30;;;;;;;3.87;1.80;;;;;;;;;;5060741;27;88487;-58
2023/05/15 07:32:58;;;;;;;2.87;1.93;;;;;;;;;;5062273;27;86256;-57
2023/05/15 07:35:27;;;;;;;2.03;1.47;;;;;;;;;;5062181;27;89004;-59
2023/05/15 07:37:55;;;;;;;2.60;1.70;;;;;;;;;;5061232;27;87751;-58
2023/05/15 07:40:24;;;;;;;4.47;1.40;;;;;;;;;;5061542;27;87920;-58
2023/05/15 07:42:52;;;;;;;4.23;1.80;;;;;;;;;;5061614;27;86997;-58
2023/05/15 07:45:21;;;;;;;2.80;1.60;;;;;;;;;;5061306;27;89341;-58
2023/05/15 07:47:51;;;;;;;2.10;1.57;;;;;;;;;;5061122;27;88781;-59
2023/05/15 07:50:19;;;;;;;3.10;1.53;;;;;;;;;;5062099;27;87112;-55
2023/05/15 07:52:47;;;;;;;2.43;1.70;;;;;;;;;;5061163;27;88827;-59
2023/05/15 07:55:16;;;;;;;2.53;1.57;;;;;;;;;;5062917;27;88304;-58
2023/05/15 07:57:44;;;;;;;6.23;2.10;;;;;;;;;;5061447;27;87927;-59
2023/05/15 08:00:13;;;;;;;3.60;1.80;;;;;;;;;;5063189;27;86929;-57
2023/05/15 08:02:44;;;;;;;2.47;1.43;;;;;;;;;;5061607;27;86946;-58
2023/05/15 08:05:15;;;;;;;2.30;2.10;;;;;;;;;;5060085;27;89318;-56
2023/05/15 08:07:43;;;;;;;3.17;1.50;;;;;;;;;;5060786;27;89974;-56
2023/05/15 08:10:12;;;;;;;9.53;2.60;;;;;;;;;;5060816;27;87200;-56
2023/05/15 08:12:44;;;;;;;3.10;2.07;;;;;;;;;;5063810;27;87086;-57
2023/05/15 08:15:13;;;;;;;6.23;2.07;;;;;;;;;;5079394;27;88024;-57
2023/05/15 08:17:41;;;;;;;3.70;2.63;;;;;;;;;;5072115;27;88465;-56
2023/05/15 08:20:10;;;;;;;4.63;2.30;;;;;;;;;;5063444;27;86891;-57
2023/05/15 08:22:40;;;;;;;5.50;2.70;;;;;;;;;;5062849;27;86501;-56
2023/05/15 08:25:08;;;;;;;3.30;2.30;;;;;;;;;;5063266;27;89167;-56
2023/05/15 08:27:37;;;;;;;2.37;1.97;;;;;;;;;;5062578;27;87829;-57
2023/05/15 08:30:06;;;;;;;2.73;2.00;;;;;;;;;;5061592;27;87974;-56
2023/05/15 08:32:34;;;;;;;3.90;2.97;;;;;;;;;;5062284;27;86828;-57
2023/05/15 08:35:03;;;;;;;3.17;2.43;;;;;;;;;;5061921;27;86889;-57
2023/05/15 08:37:33;;;;;;;4.03;2.83;;;;;;;;;;5061744;27;87940;-56
2023/05/15 08:40:04;;;;;;;5.77;2.40;;;;;;;;;;5062274;27;87069;-56
2023/05/15 08:42:33;;;;;;;4.53;3.07;;;;;;;;;;5062995;27;87038;-56
2023/05/15 08:45:01;;;;;;;5.43;3.00;;;;;;;;;;5060670;27;89244;-57
2023/05/15 08:47:30;;;;;;;5.23;2.60;;;;;;;;;;5003850;28;88874;-57
2023/05/15 08:49:59;;;;;;;4.83;3.07;;;;;;;;;;5001764;28;86969;-57
2023/05/15 08:52:28;;;;;;;4.17;2.93;;;;;;;;;;5002098;28;87022;-56
2023/05/15 08:54:56;;;;;;;5.37;3.13;;;;;;;;;;5001012;28;90159;-57
2023/05/15 08:57:26;;;;;;;5.33;2.83;;;;;;;;;;5001882;28;89673;-57
2023/05/15 08:59:55;;;;;;;4.23;2.63;;;;;;;;;;5001771;28;87733;-57
2023/05/15 09:02:24;;;;;;;5.77;3.23;;;;;;;;;;5001753;28;86893;-58
2023/05/15 09:04:52;;;;;;;7.03;3.17;;;;;;;;;;5001893;28;88144;-57
2023/05/15 09:07:20;;;;;;;5.40;2.80;;;;;;;;;;5001650;28;88856;-57
2023/05/15 09:09:49;;;;;;;8.33;3.50;;;;;;;;;;5002109;28;87084;-57
2023/05/15 09:12:17;;;;;;;5.73;2.43;;;;;;;;;;5002255;28;86313;-56
2023/05/15 09:14:47;;;;;;;6.33;3.10;;;;;;;;;;5001646;28;89133;-57
2023/05/15 09:17:15;;;;;;;4.60;2.87;;;;;;;;;;5001731;28;87947;-55
2023/05/15 09:19:43;;;;;;;5.17;2.80;;;;;;;;;;5001789;28;87682;-57
2023/05/15 09:22:16;;;;;;;6.87;3.57;;;;;;;;;;5002102;28;86898;-57
2023/05/15 09:24:46;;;;;;;4.97;3.27;;;;;;;;;;5001622;28;89224;-55
2023/05/15 09:27:15;;;;;;;4.63;3.00;;;;;;;;;;5001602;28;86863;-57
2023/05/15 09:29:44;;;;;;;4.67;3.43;;;;;;;;;;5001911;28;86892;-57
2023/05/15 09:32:14;;;;;;;5.00;2.97;;;;;;;;;;5001524;28;87110;-57
2023/05/15 09:34:43;;;;;;;3.93;2.63;;;;;;;;;;5001416;28;89253;-56
2023/05/15 09:37:13;;;;;;;6.23;3.13;;;;;;;;;;5001519;28;88528;-57
2023/05/15 09:39:42;;;;;;;4.53;3.37;;;;;;;;;;5001509;28;87238;-58
2023/05/15 09:42:11;;;;;;;5.17;3.27;;;;;;;;;;5001968;28;87029;-57
2023/05/15 09:44:41;;;;;;;4.13;2.50;;;;;;;;;;5001271;28;90261;-56
2023/05/15 09:47:09;;;;;;;4.63;2.57;;;;;;;;;;5035799;28;88892;-55
2023/05/15 09:49:39;;;;;;;5.63;3.07;;;;;;;;;;5041736;27;87055;-57
2023/05/15 09:52:08;;;;;;;6.33;2.97;;;;;;;;;;5041606;27;87015;-56
2023/05/15 09:54:36;;;;;;;3.97;2.67;;;;;;;;;;5041642;27;88103;-57
2023/05/15 09:57:08;;;;;;;4.47;2.70;;;;;;;;;;5041649;27;88486;-56
2023/05/15 09:59:36;;;;;;;3.47;2.27;;;;;;;;;;5041117;27;87890;-56
2023/05/15 10:02:05;;;;;;;5.30;2.63;;;;;;;;;;5041850;28;86151;-56
2023/05/15 10:04:36;;;;;;;4.40;2.37;;;;;;;;;;5041179;28;87918;-56
2023/05/15 10:07:07;;;;;;;6.93;2.30;;;;;;;;;;5040743;28;89004;-56
2023/05/15 10:09:35;;;;;;;5.03;2.47;;;;;;;;;;5041000;27;87984;-57
2023/05/15 10:12:04;;;;;;;7.27;2.60;;;;;;;;;;5041575;28;87057;-56
2023/05/15 10:14:32;;;;;;;3.00;2.53;;;;;;;;;;5040885;27;88903;-56
2023/05/15 10:17:01;;;;;;;4.30;2.40;;;;;;;;;;5040688;27;87733;-57
2023/05/15 10:19:29;;;;;;;4.73;2.60;;;;;;;;;;5041602;27;86906;-56
2023/05/15 10:21:57;;;;;;;3.60;2.00;;;;;;;;;;5045351;27;87052;-56
2023/05/15 10:24:27;;;;;;;4.10;2.37;;;;;;;;;;5044083;27;88133;-56
2023/05/15 10:26:55;;;;;;;4.77;2.40;;;;;;;;;;5044541;28;88997;-55
2023/05/15 10:29:25;;;;;;;2.20;2.00;;;;;;;;;;5044107;27;87020;-55
2023/05/15 10:31:54;;;;;;;2.23;1.77;;;;;;;;;;5044784;27;87113;-58
2023/05/15 10:34:22;;;;;;;3.53;2.17;;;;;;;;;;5044001;27;90177;-56
2023/05/15 10:36:51;;;;;;;3.30;2.07;;;;;;;;;;5044641;27;89898;-57
2023/05/15 10:39:19;;;;;;;4.03;2.07;;;;;;;;;;5044703;27;86854;-56
2023/05/15 10:41:49;;;;;;;3.17;2.33;;;;;;;;;;5044091;27;87057;-56
2023/05/15 10:44:17;;;;;;;1.67;1.53;;;;;;;;;;5043835;28;89146;-56
2023/05/15 10:46:45;;;;;;;2.73;2.13;;;;;;;;;;5044258;28;88843;-57
2023/05/15 10:49:14;;;;;;;2.83;1.93;;;;;;;;;;5044009;27;87096;-56
2023/05/15 10:51:42;;;;;;;1.67;1.57;;;;;;;;;;5044477;27;86343;-56
2023/05/15 10:54:11;;;;;;;2.57;1.93;;;;;;;;;;5044359;28;89188;-55
2023/05/15 10:56:39;;;;;;;3.07;1.97;;;;;;;;;;5043777;27;87550;-55
2023/05/15 10:59:09;;;;;;;2.00;1.57;;;;;;;;;;5043657;27;87813;-55
2023/05/15 11:01:38;;;;;;;1.93;1.43;;;;;;;;;;5044173;27;87111;-55
2023/05/15 11:04:07;;;;;;;1.77;1.67;;;;;;;;;;5044105;27;89167;-57
2023/05/15 11:06:36;;;;;;;1.57;1.47;;;;;;;;;;5043950;27;88551;-58
2023/05/15 11:09:23;;;;;;;2.33;1.50;;;;;;;;;;5043754;28;86972;-55
2023/05/15 11:11:55;;;;;;;1.77;1.40;;;;;;;;;;5043842;27;86876;-56
2023/05/15 11:14:25;;;;;;;1.57;1.47;;;;;;;;;;5043687;27;89198;-55
2023/05/15 11:16:57;;;;;;;3.77;1.73;;;;;;;;;;5043426;27;87761;-57
2023/05/15 11:19:26;;;;;;;1.37;1.10;;;;;;;;;;5043411;27;86960;-56
2023/05/15 11:21:57;;;;;;;2.33;1.10;;;;;;;;;;5043878;27;86996;-57
2023/05/15 11:24:28;;;;;;;2.10;1.47;;;;;;;;;;5042695;28;90049;-57
2023/05/15 11:27:02;;;;;;;5.50;1.33;;;;;;;;;;5043352;28;89772;-56
2023/05/15 11:29:32;;;;;;;0.93;0.87;;;;;;;;;;5043582;27;86982;-56
2023/05/15 11:32:00;;;;;;;1.43;1.00;;;;;;;;;;5043427;27;87043;-55
2023/05/15 11:34:31;;;;;;;1.40;1.27;;;;;;;;;;5043223;28;89244;-55
2023/05/15 11:36:59;;;;;;;2.40;1.33;;;;;;;;;;5042982;27;87706;-55
2023/05/15 11:39:28;;;;;;;1.43;1.33;;;;;;;;;;5043454;27;87090;-56
2023/05/15 11:41:56;;;;;;;2.23;1.00;;;;;;;;;;5043972;28;86281;-57
2023/05/15 11:44:27;;;;;;;2.47;1.33;;;;;;;;;;5043297;27;89051;-55
2023/05/15 11:46:57;;;;;;;2.83;1.40;;;;;;;;;;5042138;27;88361;-56
2023/05/15 11:49:25;;;;;;;2.33;1.00;;;;;;;;;;5042504;27;87762;-56
2023/05/15 11:51:54;;;;;;;2.67;1.00;;;;;;;;;;5042840;27;87088;-56
2023/05/15 11:54:22;;;;;;;3.87;0.93;;;;;;;;;;5042979;28;89333;-55
2023/05/15 11:56:51;;;;;;;3.53;1.07;;;;;;;;;;5043228;28;88677;-56
2023/05/15 11:59:19;;;;;;;1.30;1.17;;;;;;;;;;5043061;28;86910;-56
2023/05/15 12:01:48;;;;;;;2.60;1.10;;;;;;;;;;5042919;27;87056;-55
2023/05/15 12:04:18;;;;;;;3.83;0.83;;;;;;;;;;5042342;27;89195;-55
2023/05/15 12:06:48;;;;;;;2.43;1.10;;;;;;;;;;5043187;27;88768;-56
2023/05/15 12:09:17;;;;;;;1.10;0.90;;;;;;;;;;5043045;27;87022;-56
2023/05/15 12:11:49;;;;;;;0.87;0.87;;;;;;;;;;5042880;28;87050;-55
2023/05/15 12:14:18;;;;;;;0.97;0.80;;;;;;;;;;5042360;27;89237;-57
2023/05/15 12:16:46;;;;;;;15.80;9.33;;;;;;;;;;5042412;28;89904;-55
2023/05/15 12:19:14;;;;;;;178.93;52.37;;;;;;;;;;5042674;27;87145;-56
2023/05/15 12:21:48;;;;;;;227.37;78.70;;;;;;;;;;5056170;27;87006;-56
2023/05/15 12:24:16;;;;;;;229.40;82.93;;;;;;;;;;5061448;27;89173;-57
2023/05/15 12:26:45;;;;;;;154.90;61.63;;;;;;;;;;5062146;27;89046;-56
2023/05/15 12:29:13;;;;;;;167.57;57.60;;;;;;;;;;5062134;27;86988;-56
2023/05/15 12:31:42;;;;;;;108.03;45.70;;;;;;;;;;5062355;27;86297;-55
2023/05/15 12:34:10;;;;;;;90.23;39.67;;;;;;;;;;5062056;27;89092;-55
2023/05/15 12:36:38;;;;;;;80.10;33.60;;;;;;;;;;5061827;27;88558;-56
2023/05/15 12:39:09;;;;;;;76.13;31.60;;;;;;;;;;5061137;27;87884;-54
2023/05/15 12:41:38;;;;;;;68.77;30.00;;;;;;;;;;5062259;27;86987;-56
2023/05/15 12:44:06;;;;;;;47.00;22.97;;;;;;;;;;5061504;27;89112;-55
2023/05/15 12:46:34;;;;;;;55.40;22.73;;;;;;;;;;5061695;27;87799;-56
2023/05/15 12:49:03;;;;;;;50.37;21.07;;;;;;;;;;5061850;27;87072;-55
2023/05/15 12:51:31;;;;;;;46.63;16.67;;;;;;;;;;5045678;27;87033;-55
2023/05/15 12:53:59;;;;;;;34.13;16.37;;;;;;;;;;5041512;28;89172;-56
2023/05/15 12:56:31;;;;;;;33.13;14.40;;;;;;;;;;5049788;27;87639;-54
2023/05/15 12:58:59;;;;;;;30.67;13.17;;;;;;;;;;5061375;27;87006;-55
2023/05/15 13:01:27;;;;;;;28.73;11.37;;;;;;;;;;5061754;27;86999;-56
2023/05/15 13:03:57;;;;;;;25.73;12.07;;;;;;;;;;5061230;27;88983;-55
2023/05/15 13:06:26;;;;;;;23.53;10.57;;;;;;;;;;5060718;27;88736;-55
2023/05/15 13:09:12;;;;;;;16.17;7.80;;;;;;;;;;5044317;27;87134;-54
2023/05/15 13:11:45;;;;;;;19.80;8.30;;;;;;;;;;5061773;27;87038;-55
2023/05/15 13:14:16;;;;;;;13.27;7.20;;;;;;;;;;5052810;27;88179;-55
2023/05/15 13:16:45;;;;;;;15.17;6.57;;;;;;;;;;5041430;27;88865;-55
2023/05/15 13:19:14;;;;;;;15.93;7.67;;;;;;;;;;5041322;27;87023;-55
2023/05/15 13:21:44;;;;;;;11.57;6.10;;;;;;;;;;5050275;27;88006;-55
2023/05/15 13:24:12;;;;;;;9.47;4.57;;;;;;;;;;5056065;27;89014;-55
2023/05/15 13:26:41;;;;;;;12.80;5.27;;;;;;;;;;5048358;27;87833;-55
2023/05/15 13:29:11;;;;;;;9.97;4.97;;;;;;;;;;5061677;27;88118;-54
2023/05/15 13:31:39;;;;;;;10.80;4.47;;;;;;;;;;5060698;27;87077;-54
2023/05/15 13:34:07;;;;;;;9.93;5.73;;;;;;;;;;5061316;27;89235;-55
2023/05/15 13:36:36;;;;;;;12.37;4.80;;;;;;;;;;5051504;27;88486;-55
2023/05/15 13:39:05;;;;;;;15.63;4.00;;;;;;;;;;5061322;27;87206;-55
2023/05/15 13:41:33;;;;;;;7.60;4.03;;;;;;;;;;5060296;27;88365;-56
2023/05/15 13:44:01;;;;;;;8.67;3.30;;;;;;;;;;5061165;27;89261;-56
2023/05/15 13:46:31;;;;;;;8.00;3.13;;;;;;;;;;5061759;27;86380;-56
2023/05/15 13:49:00;;;;;;;5.90;2.97;;;;;;;;;;5060314;27;87190;-56
2023/05/15 13:51:28;;;;;;;6.87;1.90;;;;;;;;;;5061711;27;87202;-56
2023/05/15 13:53:57;;;;;;;3.80;2.10;;;;;;;;;;5056500;27;90268;-56
2023/05/15 13:56:25;;;;;;;6.90;2.07;;;;;;;;;;5058441;27;89991;-56
2023/05/15 13:58:54;;;;;;;2.27;1.47;;;;;;;;;;5064017;27;87019;-56
2023/05/15 14:01:22;;;;;;;2.97;1.33;;;;;;;;;;5064970;27;86964;-55
2023/05/15 14:03:52;;;;;;;3.10;1.47;;;;;;;;;;5062389;27;89194;-55
2023/05/15 14:06:21;;;;;;;3.33;2.10;;;;;;;;;;5064953;27;86988;-55
2023/05/15 14:08:49;;;;;;;2.30;1.53;;;;;;;;;;5065262;27;86996;-55
2023/05/15 14:11:18;;;;;;;3.33;1.20;;;;;;;;;;5065015;27;86141;-54
2023/05/15 14:13:46;;;;;;;3.87;1.30;;;;;;;;;;5064747;27;88921;-55
2023/05/15 14:16:14;;;;;;;2.23;1.13;;;;;;;;;;5065038;27;88580;-55
2023/05/15 14:18:43;;;;;;;4.30;1.30;;;;;;;;;;5064328;27;87974;-55
2023/05/15 14:21:12;;;;;;;1.40;1.00;;;;;;;;;;5064509;27;87031;-54
2023/05/15 14:23:41;;;;;;;2.27;1.40;;;;;;;;;;5063921;27;89145;-55
2023/05/15 14:26:09;;;;;;;1.70;1.13;;;;;;;;;;5064647;27;88939;-55
2023/05/15 14:28:37;;;;;;;3.43;1.70;;;;;;;;;;5064897;27;87010;-54
2023/05/15 14:31:06;;;;;;;1.00;0.90;;;;;;;;;;5064520;27;87056;-54
2023/05/15 14:33:34;;;;;;;1.23;0.83;;;;;;;;;;5064819;27;86875;-54
2023/05/15 14:36:03;;;;;;;8.30;1.40;;;;;;;;;;5064960;27;87817;-54
2023/05/15 14:38:33;;;;;;;1.23;0.80;;;;;;;;;;5064910;27;87013;-55
2023/05/15 14:41:01;;;;;;;1.63;0.70;;;;;;;;;;5064678;27;86720;-55
2023/05/15 14:43:29;;;;;;;1.63;0.80;;;;;;;;;;5063968;27;90171;-55
2023/05/15 14:45:58;;;;;;;0.70;0.70;;;;;;;;;;5063220;27;89864;-55
2023/05/15 14:48:26;;;;;;;2.10;0.70;;;;;;;;;;5064279;27;87073;-55
2023/05/15 14:50:54;;;;;;;1.70;0.87;;;;;;;;;;5064328;27;86951;-58